sensor_id;sensor_type;location;lat;lon;timestamp;P1;durP1;ratioP1;P2;durP2;ratioP2
31537;SDS011;18147;51.952;6.146;2023-07-20T00:00:15;10.45;;;7.10;;
31537;SDS011;18147;51.952;6.146;2023-07-20T00:02:44;10.00;;;7.82;;
31537;SDS011;18147;51.952;6.146;2023-07-20T00:05:13;12.88;;;8.25;;
31537;SDS011;18147;51.952;6.146;2023-07-20T00:07:38;10.18;;;7.93;;
31537;SDS011;18147;51.952;6.146;2023-07-20T00:10:12;11.50;;;8.98;;
31537;SDS011;18147;51.952;6.146;2023-07-20T00:12:38;11.00;;;8.57;;
31537;SDS011;18147;51.952;6.146;2023-07-20T00:15:08;12.02;;;8.63;;
31537;SDS011;18147;51.952;6.146;2023-07-20T00:17:34;12.02;;;8.80;;
31537;SDS011;18147;51.952;6.146;2023-07-20T00:20:02;12.38;;;9.15;;
31537;SDS011;18147;51.952;6.146;2023-07-20T00:22:30;11.60;;;8.57;;
31537;SDS011;18147;51.952;6.146;2023-07-20T00:25:06;15.02;;;9.90;;
31537;SDS011;18147;51.952;6.146;2023-07-20T00:27:32;13.85;;;9.52;;
31537;SDS011;18147;51.952;6.146;2023-07-20T00:29:58;16.15;;;9.68;;
31537;SDS011;18147;51.952;6.146;2023-07-20T00:32:23;17.23;;;9.90;;
31537;SDS011;18147;51.952;6.146;2023-07-20T00:34:49;15.32;;;10.10;;
31537;SDS011;18147;51.952;6.146;2023-07-20T00:37:14;14.20;;;9.68;;
31537;SDS011;18147;51.952;6.146;2023-07-20T00:39:50;16.10;;;9.60;;
31537;SDS011;18147;51.952;6.146;2023-07-20T00:42:17;12.70;;;9.10;;
31537;SDS011;18147;51.952;6.146;2023-07-20T00:44:43;12.65;;;8.98;;
31537;SDS011;18147;51.952;6.146;2023-07-20T00:47:13;13.82;;;8.98;;
31537;SDS011;18147;51.952;6.146;2023-07-20T00:49:42;14.10;;;9.05;;
31537;SDS011;18147;51.952;6.146;2023-07-20T00:52:12;12.77;;;8.15;;
31537;SDS011;18147;51.952;6.146;2023-07-20T00:54:43;11.13;;;8.32;;
31537;SDS011;18147;51.952;6.146;2023-07-20T00:57:15;9.98;;;7.65;;
31537;SDS011;18147;51.952;6.146;2023-07-20T00:59:42;14.05;;;7.80;;
31537;SDS011;18147;51.952;6.146;2023-07-20T01:02:15;12.35;;;7.53;;
31537;SDS011;18147;51.952;6.146;2023-07-20T01:04:44;11.98;;;8.05;;
31537;SDS011;18147;51.952;6.146;2023-07-20T01:07:25;10.88;;;7.32;;
31537;SDS011;18147;51.952;6.146;2023-07-20T01:12:47;12.93;;;7.80;;
31537;SDS011;18147;51.952;6.146;2023-07-20T01:15:15;12.70;;;7.90;;
31537;SDS011;18147;51.952;6.146;2023-07-20T01:17:44;11.85;;;7.15;;
31537;SDS011;18147;51.952;6.146;2023-07-20T01:20:20;9.07;;;6.97;;
31537;SDS011;18147;51.952;6.146;2023-07-20T01:25:50;17.00;;;7.82;;
31537;SDS011;18147;51.952;6.146;2023-07-20T01:29:17;11.93;;;7.35;;
31537;SDS011;18147;51.952;6.146;2023-07-20T01:32:01;11.80;;;6.72;;
31537;SDS011;18147;51.952;6.146;2023-07-20T01:34:30;12.43;;;7.65;;
31537;SDS011;18147;51.952;6.146;2023-07-20T01:36:57;12.63;;;7.53;;
31537;SDS011;18147;51.952;6.146;2023-07-20T01:39:25;11.27;;;6.80;;
31537;SDS011;18147;51.952;6.146;2023-07-20T01:41:51;10.30;;;7.70;;
31537;SDS011;18147;51.952;6.146;2023-07-20T01:44:18;10.52;;;7.63;;
31537;SDS011;18147;51.952;6.146;2023-07-20T01:46:44;6.32;;;5.70;;
31537;SDS011;18147;51.952;6.146;2023-07-20T01:49:09;8.75;;;5.82;;
31537;SDS011;18147;51.952;6.146;2023-07-20T01:51:46;6.70;;;6.03;;
31537;SDS011;18147;51.952;6.146;2023-07-20T01:54:14;8.65;;;5.97;;
31537;SDS011;18147;51.952;6.146;2023-07-20T01:56:44;6.03;;;4.40;;
31537;SDS011;18147;51.952;6.146;2023-07-20T01:59:13;4.93;;;4.43;;
31537;SDS011;18147;51.952;6.146;2023-07-20T02:01:45;8.32;;;4.50;;
31537;SDS011;18147;51.952;6.146;2023-07-20T02:04:13;4.32;;;3.83;;
31537;SDS011;18147;51.952;6.146;2023-07-20T02:06:42;4.97;;;3.90;;
31537;SDS011;18147;51.952;6.146;2023-07-20T02:09:13;6.70;;;3.90;;
31537;SDS011;18147;51.952;6.146;2023-07-20T02:11:47;4.07;;;3.67;;
31537;SDS011;18147;51.952;6.146;2023-07-20T02:14:13;5.28;;;3.63;;
31537;SDS011;18147;51.952;6.146;2023-07-20T02:16:38;5.63;;;3.63;;
31537;SDS011;18147;51.952;6.146;2023-07-20T02:19:07;7.95;;;4.57;;
31537;SDS011;18147;51.952;6.146;2023-07-20T02:21:33;5.30;;;4.10;;
31537;SDS011;18147;51.952;6.146;2023-07-20T02:24:02;7.38;;;4.93;;
31537;SDS011;18147;51.952;6.146;2023-07-20T02:26:27;5.30;;;4.43;;
31537;SDS011;18147;51.952;6.146;2023-07-20T02:28:55;6.13;;;4.82;;
31537;SDS011;18147;51.952;6.146;2023-07-20T02:31:21;5.50;;;4.55;;
31537;SDS011;18147;51.952;6.146;2023-07-20T02:33:47;5.10;;;4.60;;
31537;SDS011;18147;51.952;6.146;2023-07-20T02:36:12;8.43;;;5.00;;
31537;SDS011;18147;51.952;6.146;2023-07-20T02:38:38;5.00;;;4.50;;
31537;SDS011;18147;51.952;6.146;2023-07-20T02:41:03;4.55;;;4.10;;
31537;SDS011;18147;51.952;6.146;2023-07-20T02:43:29;8.10;;;4.80;;
31537;SDS011;18147;51.952;6.146;2023-07-20T02:45:58;4.72;;;4.00;;
31537;SDS011;18147;51.952;6.146;2023-07-20T02:48:23;5.10;;;4.28;;
31537;SDS011;18147;51.952;6.146;2023-07-20T02:50:52;5.13;;;4.22;;
31537;SDS011;18147;51.952;6.146;2023-07-20T02:53:17;7.78;;;4.88;;
31537;SDS011;18147;51.952;6.146;2023-07-20T02:55:43;6.40;;;4.18;;
31537;SDS011;18147;51.952;6.146;2023-07-20T02:58:08;4.90;;;4.22;;
31537;SDS011;18147;51.952;6.146;2023-07-20T03:00:35;7.35;;;4.80;;
31537;SDS011;18147;51.952;6.146;2023-07-20T03:03:03;4.60;;;3.97;;
31537;SDS011;18147;51.952;6.146;2023-07-20T03:05:29;6.10;;;4.20;;
31537;SDS011;18147;51.952;6.146;2023-07-20T03:07:55;4.60;;;4.18;;
31537;SDS011;18147;51.952;6.146;2023-07-20T03:10:21;5.25;;;4.63;;
31537;SDS011;18147;51.952;6.146;2023-07-20T03:12:47;5.53;;;4.60;;
31537;SDS011;18147;51.952;6.146;2023-07-20T03:15:12;5.30;;;4.68;;
31537;SDS011;18147;51.952;6.146;2023-07-20T03:17:44;7.95;;;4.47;;
31537;SDS011;18147;51.952;6.146;2023-07-20T03:20:11;6.18;;;4.93;;
31537;SDS011;18147;51.952;6.146;2023-07-20T03:22:46;5.63;;;4.45;;
31537;SDS011;18147;51.952;6.146;2023-07-20T03:25:15;5.22;;;4.72;;
31537;SDS011;18147;51.952;6.146;2023-07-20T03:27:44;6.57;;;4.97;;
31537;SDS011;18147;51.952;6.146;2023-07-20T03:30:10;5.60;;;5.07;;
31537;SDS011;18147;51.952;6.146;2023-07-20T03:32:43;5.47;;;4.97;;
31537;SDS011;18147;51.952;6.146;2023-07-20T03:35:09;7.22;;;5.10;;
31537;SDS011;18147;51.952;6.146;2023-07-20T03:37:45;6.10;;;4.75;;
31537;SDS011;18147;51.952;6.146;2023-07-20T03:40:17;7.25;;;5.00;;
31537;SDS011;18147;51.952;6.146;2023-07-20T03:42:45;5.90;;;5.35;;
31537;SDS011;18147;51.952;6.146;2023-07-20T03:45:15;7.45;;;5.25;;
31537;SDS011;18147;51.952;6.146;2023-07-20T03:47:46;5.88;;;5.28;;
31537;SDS011;18147;51.952;6.146;2023-07-20T03:50:16;7.43;;;5.60;;
31537;SDS011;18147;51.952;6.146;2023-07-20T03:52:44;9.60;;;5.53;;
31537;SDS011;18147;51.952;6.146;2023-07-20T03:55:17;8.05;;;4.90;;
31537;SDS011;18147;51.952;6.146;2023-07-20T03:57:49;6.97;;;5.18;;
31537;SDS011;18147;51.952;6.146;2023-07-20T04:00:16;5.53;;;4.97;;
31537;SDS011;18147;51.952;6.146;2023-07-20T04:02:43;6.45;;;5.03;;
31537;SDS011;18147;51.952;6.146;2023-07-20T04:05:08;6.50;;;4.78;;
31537;SDS011;18147;51.952;6.146;2023-07-20T04:07:34;5.88;;;4.03;;
31537;SDS011;18147;51.952;6.146;2023-07-20T04:09:59;5.90;;;3.92;;
31537;SDS011;18147;51.952;6.146;2023-07-20T04:12:25;5.45;;;4.50;;
31537;SDS011;18147;51.952;6.146;2023-07-20T04:14:51;4.03;;;3.72;;
31537;SDS011;18147;51.952;6.146;2023-07-20T04:17:17;5.50;;;3.90;;
31537;SDS011;18147;51.952;6.146;2023-07-20T04:19:43;3.40;;;3.10;;
31537;SDS011;18147;51.952;6.146;2023-07-20T04:22:09;4.47;;;3.40;;
31537;SDS011;18147;51.952;6.146;2023-07-20T04:24:44;6.00;;;3.20;;
31537;SDS011;18147;51.952;6.146;2023-07-20T04:27:13;6.60;;;3.58;;
31537;SDS011;18147;51.952;6.146;2023-07-20T04:29:40;3.97;;;2.83;;
31537;SDS011;18147;51.952;6.146;2023-07-20T04:32:08;3.95;;;3.00;;
31537;SDS011;18147;51.952;6.146;2023-07-20T04:34:36;3.40;;;3.05;;
31537;SDS011;18147;51.952;6.146;2023-07-20T04:37:05;4.03;;;2.80;;
31537;SDS011;18147;51.952;6.146;2023-07-20T04:39:31;2.92;;;2.65;;
31537;SDS011;18147;51.952;6.146;2023-07-20T04:41:58;5.50;;;3.00;;
31537;SDS011;18147;51.952;6.146;2023-07-20T04:44:27;5.00;;;2.97;;
31537;SDS011;18147;51.952;6.146;2023-07-20T04:46:52;3.47;;;2.60;;
31537;SDS011;18147;51.952;6.146;2023-07-20T04:49:18;2.42;;;2.22;;
31537;SDS011;18147;51.952;6.146;2023-07-20T04:51:45;3.38;;;2.88;;
31537;SDS011;18147;51.952;6.146;2023-07-20T04:54:11;3.28;;;2.85;;
31537;SDS011;18147;51.952;6.146;2023-07-20T04:56:43;5.38;;;2.55;;
31537;SDS011;18147;51.952;6.146;2023-07-20T04:59:11;3.47;;;2.42;;
31537;SDS011;18147;51.952;6.146;2023-07-20T05:01:45;8.07;;;2.60;;
31537;SDS011;18147;51.952;6.146;2023-07-20T05:04:11;2.75;;;2.38;;
31537;SDS011;18147;51.952;6.146;2023-07-20T05:06:42;3.85;;;2.20;;
31537;SDS011;18147;51.952;6.146;2023-07-20T05:09:20;2.58;;;2.20;;
31537;SDS011;18147;51.952;6.146;2023-07-20T05:11:46;4.30;;;2.03;;
31537;SDS011;18147;51.952;6.146;2023-07-20T05:14:14;2.45;;;1.77;;
31537;SDS011;18147;51.952;6.146;2023-07-20T05:16:43;2.03;;;1.92;;
31537;SDS011;18147;51.952;6.146;2023-07-20T05:19:08;2.83;;;2.33;;
31537;SDS011;18147;51.952;6.146;2023-07-20T05:21:34;2.60;;;2.40;;
31537;SDS011;18147;51.952;6.146;2023-07-20T05:24:02;6.30;;;2.78;;
31537;SDS011;18147;51.952;6.146;2023-07-20T05:26:28;3.65;;;2.30;;
31537;SDS011;18147;51.952;6.146;2023-07-20T05:28:55;2.10;;;2.00;;
31537;SDS011;18147;51.952;6.146;2023-07-20T05:31:20;5.65;;;2.40;;
31537;SDS011;18147;51.952;6.146;2023-07-20T05:33:46;3.47;;;2.20;;
31537;SDS011;18147;51.952;6.146;2023-07-20T05:36:15;2.50;;;2.30;;
31537;SDS011;18147;51.952;6.146;2023-07-20T05:38:44;4.45;;;2.40;;
31537;SDS011;18147;51.952;6.146;2023-07-20T05:41:17;2.25;;;1.88;;
31537;SDS011;18147;51.952;6.146;2023-07-20T05:43:43;2.97;;;2.45;;
31537;SDS011;18147;51.952;6.146;2023-07-20T05:46:19;4.40;;;2.50;;
31537;SDS011;18147;51.952;6.146;2023-07-20T05:48:44;3.65;;;2.47;;
31537;SDS011;18147;51.952;6.146;2023-07-20T05:51:15;3.25;;;1.98;;
31537;SDS011;18147;51.952;6.146;2023-07-20T05:53:44;4.75;;;2.03;;
31537;SDS011;18147;51.952;6.146;2023-07-20T05:56:13;2.83;;;1.85;;
31537;SDS011;18147;51.952;6.146;2023-07-20T06:01:16;2.55;;;1.88;;
31537;SDS011;18147;51.952;6.146;2023-07-20T06:03:46;2.08;;;1.65;;
31537;SDS011;18147;51.952;6.146;2023-07-20T06:06:14;1.85;;;1.73;;
31537;SDS011;18147;51.952;6.146;2023-07-20T06:08:46;1.77;;;1.63;;
31537;SDS011;18147;51.952;6.146;2023-07-20T06:11:18;5.38;;;1.80;;
31537;SDS011;18147;51.952;6.146;2023-07-20T06:13:47;5.82;;;1.63;;
31537;SDS011;18147;51.952;6.146;2023-07-20T06:16:15;4.97;;;1.80;;
31537;SDS011;18147;51.952;6.146;2023-07-20T06:18:47;2.53;;;1.70;;
31537;SDS011;18147;51.952;6.146;2023-07-20T06:21:16;2.33;;;1.45;;
31537;SDS011;18147;51.952;6.146;2023-07-20T06:23:43;2.80;;;1.33;;
31537;SDS011;18147;51.952;6.146;2023-07-20T06:26:12;1.77;;;1.23;;
31537;SDS011;18147;51.952;6.146;2023-07-20T06:28:45;3.22;;;1.17;;
31537;SDS011;18147;51.952;6.146;2023-07-20T06:31:14;3.17;;;1.35;;
31537;SDS011;18147;51.952;6.146;2023-07-20T06:33:45;2.72;;;1.30;;
31537;SDS011;18147;51.952;6.146;2023-07-20T06:36:17;3.40;;;1.50;;
31537;SDS011;18147;51.952;6.146;2023-07-20T06:38:46;1.40;;;1.20;;
31537;SDS011;18147;51.952;6.146;2023-07-20T06:41:20;2.17;;;1.20;;
31537;SDS011;18147;51.952;6.146;2023-07-20T06:43:46;1.35;;;1.00;;
31537;SDS011;18147;51.952;6.146;2023-07-20T06:46:12;4.03;;;0.80;;
31537;SDS011;18147;51.952;6.146;2023-07-20T06:48:47;1.38;;;1.05;;
31537;SDS011;18147;51.952;6.146;2023-07-20T06:53:47;1.27;;;1.00;;
31537;SDS011;18147;51.952;6.146;2023-07-20T06:56:16;2.35;;;1.27;;
31537;SDS011;18147;51.952;6.146;2023-07-20T06:58:44;1.77;;;1.05;;
31537;SDS011;18147;51.952;6.146;2023-07-20T07:01:16;1.80;;;1.17;;
31537;SDS011;18147;51.952;6.146;2023-07-20T07:06:16;0.77;;;0.70;;
31537;SDS011;18147;51.952;6.146;2023-07-20T07:08:45;3.20;;;1.05;;
31537;SDS011;18147;51.952;6.146;2023-07-20T07:11:20;1.08;;;0.90;;
31537;SDS011;18147;51.952;6.146;2023-07-20T07:13:47;1.60;;;1.10;;
31537;SDS011;18147;51.952;6.146;2023-07-20T07:16:15;2.25;;;0.88;;
31537;SDS011;18147;51.952;6.146;2023-07-20T07:18:50;0.70;;;0.70;;
31537;SDS011;18147;51.952;6.146;2023-07-20T07:21:16;2.55;;;0.85;;
31537;SDS011;18147;51.952;6.146;2023-07-20T07:23:51;3.30;;;0.75;;
31537;SDS011;18147;51.952;6.146;2023-07-20T07:26:19;2.63;;;1.10;;
31537;SDS011;18147;51.952;6.146;2023-07-20T07:28:47;1.73;;;0.55;;
31537;SDS011;18147;51.952;6.146;2023-07-20T07:31:15;1.58;;;0.80;;
31537;SDS011;18147;51.952;6.146;2023-07-20T07:33:46;2.17;;;0.87;;
31537;SDS011;18147;51.952;6.146;2023-07-20T07:36:17;1.48;;;0.80;;
31537;SDS011;18147;51.952;6.146;2023-07-20T07:38:47;3.70;;;1.08;;
31537;SDS011;18147;51.952;6.146;2023-07-20T07:41:13;2.63;;;1.10;;
31537;SDS011;18147;51.952;6.146;2023-07-20T07:43:45;1.95;;;0.95;;
31537;SDS011;18147;51.952;6.146;2023-07-20T07:46:10;3.03;;;0.98;;
31537;SDS011;18147;51.952;6.146;2023-07-20T07:48:46;1.38;;;0.90;;
31537;SDS011;18147;51.952;6.146;2023-07-20T07:51:19;2.28;;;0.90;;
31537;SDS011;18147;51.952;6.146;2023-07-20T07:53:45;1.10;;;1.00;;
31537;SDS011;18147;51.952;6.146;2023-07-20T07:56:15;1.63;;;1.10;;
31537;SDS011;18147;51.952;6.146;2023-07-20T07:58:45;0.98;;;0.98;;
31537;SDS011;18147;51.952;6.146;2023-07-20T08:01:16;1.88;;;0.80;;
31537;SDS011;18147;51.952;6.146;2023-07-20T08:03:46;1.42;;;1.05;;
31537;SDS011;18147;51.952;6.146;2023-07-20T08:06:13;3.10;;;1.20;;
31537;SDS011;18147;51.952;6.146;2023-07-20T08:08:44;2.22;;;0.90;;
31537;SDS011;18147;51.952;6.146;2023-07-20T08:11:16;2.38;;;1.10;;
31537;SDS011;18147;51.952;6.146;2023-07-20T08:13:43;1.45;;;1.23;;
31537;SDS011;18147;51.952;6.146;2023-07-20T08:16:09;3.30;;;1.00;;
31537;SDS011;18147;51.952;6.146;2023-07-20T08:18:45;3.60;;;1.15;;
31537;SDS011;18147;51.952;6.146;2023-07-20T08:21:20;3.30;;;1.10;;
31537;SDS011;18147;51.952;6.146;2023-07-20T08:23:45;2.47;;;0.90;;
31537;SDS011;18147;51.952;6.146;2023-07-20T08:26:15;0.90;;;0.90;;
31537;SDS011;18147;51.952;6.146;2023-07-20T08:28:43;2.13;;;1.00;;
31537;SDS011;18147;51.952;6.146;2023-07-20T08:31:16;0.90;;;0.90;;
31537;SDS011;18147;51.952;6.146;2023-07-20T08:33:42;2.55;;;0.90;;
31537;SDS011;18147;51.952;6.146;2023-07-20T08:36:19;1.88;;;1.20;;
31537;SDS011;18147;51.952;6.146;2023-07-20T08:38:45;1.60;;;0.80;;
31537;SDS011;18147;51.952;6.146;2023-07-20T08:41:12;3.10;;;0.80;;
31537;SDS011;18147;51.952;6.146;2023-07-20T08:43:42;1.95;;;0.90;;
31537;SDS011;18147;51.952;6.146;2023-07-20T08:46:17;2.70;;;1.35;;
31537;SDS011;18147;51.952;6.146;2023-07-20T08:48:46;2.35;;;1.20;;
31537;SDS011;18147;51.952;6.146;2023-07-20T08:51:19;1.17;;;1.08;;
31537;SDS011;18147;51.952;6.146;2023-07-20T08:53:46;0.82;;;0.80;;
31537;SDS011;18147;51.952;6.146;2023-07-20T08:56:20;1.73;;;1.20;;
31537;SDS011;18147;51.952;6.146;2023-07-20T08:58:49;1.30;;;0.90;;
31537;SDS011;18147;51.952;6.146;2023-07-20T09:01:19;0.77;;;0.70;;
31537;SDS011;18147;51.952;6.146;2023-07-20T09:03:48;2.45;;;1.00;;
31537;SDS011;18147;51.952;6.146;2023-07-20T09:06:17;1.10;;;1.00;;
31537;SDS011;18147;51.952;6.146;2023-07-20T09:08:46;2.97;;;1.40;;
31537;SDS011;18147;51.952;6.146;2023-07-20T09:11:15;1.63;;;0.90;;
31537;SDS011;18147;51.952;6.146;2023-07-20T09:13:41;1.67;;;1.13;;
31537;SDS011;18147;51.952;6.146;2023-07-20T09:16:17;1.75;;;0.80;;
31537;SDS011;18147;51.952;6.146;2023-07-20T09:18:45;2.47;;;0.80;;
31537;SDS011;18147;51.952;6.146;2023-07-20T09:21:12;1.85;;;0.70;;
31537;SDS011;18147;51.952;6.146;2023-07-20T09:23:44;1.05;;;0.95;;
31537;SDS011;18147;51.952;6.146;2023-07-20T09:26:10;2.15;;;0.90;;
31537;SDS011;18147;51.952;6.146;2023-07-20T09:31:20;1.50;;;0.90;;
31537;SDS011;18147;51.952;6.146;2023-07-20T09:33:47;2.80;;;1.00;;
31537;SDS011;18147;51.952;6.146;2023-07-20T09:36:19;1.77;;;0.90;;
31537;SDS011;18147;51.952;6.146;2023-07-20T09:38:47;3.20;;;1.00;;
31537;SDS011;18147;51.952;6.146;2023-07-20T09:41:16;1.25;;;1.15;;
31537;SDS011;18147;51.952;6.146;2023-07-20T09:43:46;1.65;;;1.00;;
31537;SDS011;18147;51.952;6.146;2023-07-20T09:46:15;0.88;;;0.73;;
31537;SDS011;18147;51.952;6.146;2023-07-20T09:48:51;2.50;;;0.95;;
31537;SDS011;18147;51.952;6.146;2023-07-20T09:51:22;0.95;;;0.70;;
31537;SDS011;18147;51.952;6.146;2023-07-20T09:53:49;2.03;;;1.00;;
31537;SDS011;18147;51.952;6.146;2023-07-20T09:56:18;2.30;;;1.00;;
31537;SDS011;18147;51.952;6.146;2023-07-20T09:58:46;0.95;;;0.80;;
31537;SDS011;18147;51.952;6.146;2023-07-20T10:01:17;2.95;;;0.90;;
31537;SDS011;18147;51.952;6.146;2023-07-20T10:03:46;1.65;;;0.82;;
31537;SDS011;18147;51.952;6.146;2023-07-20T10:06:15;2.03;;;0.90;;
31537;SDS011;18147;51.952;6.146;2023-07-20T10:08:45;3.10;;;1.20;;
31537;SDS011;18147;51.952;6.146;2023-07-20T10:11:16;0.70;;;0.70;;
31537;SDS011;18147;51.952;6.146;2023-07-20T10:13:45;0.93;;;0.85;;
31537;SDS011;18147;51.952;6.146;2023-07-20T10:16:21;2.22;;;0.90;;
31537;SDS011;18147;51.952;6.146;2023-07-20T10:18:59;1.55;;;0.70;;
31537;SDS011;18147;51.952;6.146;2023-07-20T10:21:32;0.85;;;0.85;;
31537;SDS011;18147;51.952;6.146;2023-07-20T10:24:01;4.30;;;1.02;;
31537;SDS011;18147;51.952;6.146;2023-07-20T10:26:38;4.53;;;1.63;;
31537;SDS011;18147;51.952;6.146;2023-07-20T10:31:46;0.98;;;0.80;;
31537;SDS011;18147;51.952;6.146;2023-07-20T10:34:17;3.88;;;1.05;;
31537;SDS011;18147;51.952;6.146;2023-07-20T10:39:30;2.22;;;1.00;;
31537;SDS011;18147;51.952;6.146;2023-07-20T10:46:59;1.95;;;0.93;;
31537;SDS011;18147;51.952;6.146;2023-07-20T10:49:32;2.97;;;1.10;;
31537;SDS011;18147;51.952;6.146;2023-07-20T10:52:05;1.35;;;1.00;;
31537;SDS011;18147;51.952;6.146;2023-07-20T10:57:44;2.50;;;0.93;;
31537;SDS011;18147;51.952;6.146;2023-07-20T11:00:08;1.77;;;1.10;;
31537;SDS011;18147;51.952;6.146;2023-07-20T11:02:45;1.45;;;0.80;;
31537;SDS011;18147;51.952;6.146;2023-07-20T11:08:00;0.85;;;0.85;;
31537;SDS011;18147;51.952;6.146;2023-07-20T11:13:54;1.40;;;1.08;;
31537;SDS011;18147;51.952;6.146;2023-07-20T11:16:38;2.55;;;1.35;;
31537;SDS011;18147;51.952;6.146;2023-07-20T11:19:14;4.53;;;1.05;;
31537;SDS011;18147;51.952;6.146;2023-07-20T11:21:50;2.00;;;1.00;;
31537;SDS011;18147;51.952;6.146;2023-07-20T11:24:20;3.25;;;1.10;;
31537;SDS011;18147;51.952;6.146;2023-07-20T11:26:47;2.05;;;1.10;;
31537;SDS011;18147;51.952;6.146;2023-07-20T11:29:15;1.85;;;0.95;;
31537;SDS011;18147;51.952;6.146;2023-07-20T11:31:46;3.17;;;1.05;;
31537;SDS011;18147;51.952;6.146;2023-07-20T11:34:16;4.65;;;1.23;;
31537;SDS011;18147;51.952;6.146;2023-07-20T11:36:48;5.93;;;1.10;;
31537;SDS011;18147;51.952;6.146;2023-07-20T11:39:18;0.88;;;0.73;;
31537;SDS011;18147;51.952;6.146;2023-07-20T11:41:48;1.10;;;0.90;;
31537;SDS011;18147;51.952;6.146;2023-07-20T11:44:15;2.78;;;1.02;;
31537;SDS011;18147;51.952;6.146;2023-07-20T11:46:43;1.27;;;1.00;;
31537;SDS011;18147;51.952;6.146;2023-07-20T11:49:19;1.50;;;1.00;;
31537;SDS011;18147;51.952;6.146;2023-07-20T11:51:47;2.58;;;1.00;;
31537;SDS011;18147;51.952;6.146;2023-07-20T11:54:16;2.42;;;0.98;;
31537;SDS011;18147;51.952;6.146;2023-07-20T11:56:45;2.92;;;1.05;;
31537;SDS011;18147;51.952;6.146;2023-07-20T11:59:14;4.03;;;1.00;;
31537;SDS011;18147;51.952;6.146;2023-07-20T12:01:44;1.77;;;1.10;;
31537;SDS011;18147;51.952;6.146;2023-07-20T12:04:16;2.53;;;1.13;;
31537;SDS011;18147;51.952;6.146;2023-07-20T12:06:45;1.70;;;1.10;;
31537;SDS011;18147;51.952;6.146;2023-07-20T12:09:16;2.70;;;1.40;;
31537;SDS011;18147;51.952;6.146;2023-07-20T12:11:48;3.15;;;1.58;;
31537;SDS011;18147;51.952;6.146;2023-07-20T12:14:18;2.13;;;1.30;;
31537;SDS011;18147;51.952;6.146;2023-07-20T12:16:44;2.03;;;1.20;;
31537;SDS011;18147;51.952;6.146;2023-07-20T12:19:17;2.47;;;1.45;;
31537;SDS011;18147;51.952;6.146;2023-07-20T12:21:46;1.25;;;1.15;;
31537;SDS011;18147;51.952;6.146;2023-07-20T12:24:15;1.83;;;1.67;;
31537;SDS011;18147;51.952;6.146;2023-07-20T12:26:46;2.65;;;1.50;;
31537;SDS011;18147;51.952;6.146;2023-07-20T12:29:18;7.07;;;2.15;;
31537;SDS011;18147;51.952;6.146;2023-07-20T12:31:46;15.52;;;2.47;;
31537;SDS011;18147;51.952;6.146;2023-07-20T12:34:15;4.35;;;1.13;;
31537;SDS011;18147;51.952;6.146;2023-07-20T12:36:43;11.77;;;2.08;;
31537;SDS011;18147;51.952;6.146;2023-07-20T12:39:13;1.77;;;1.00;;
31537;SDS011;18147;51.952;6.146;2023-07-20T12:41:42;3.97;;;1.05;;
31537;SDS011;18147;51.952;6.146;2023-07-20T12:44:17;22.02;;;2.53;;
31537;SDS011;18147;51.952;6.146;2023-07-20T12:46:43;32.33;;;3.20;;
31537;SDS011;18147;51.952;6.146;2023-07-20T12:49:16;14.65;;;2.10;;
31537;SDS011;18147;51.952;6.146;2023-07-20T12:51:48;5.88;;;1.75;;
31537;SDS011;18147;51.952;6.146;2023-07-20T12:54:17;12.70;;;1.90;;
31537;SDS011;18147;51.952;6.146;2023-07-20T12:56:44;9.43;;;2.05;;
31537;SDS011;18147;51.952;6.146;2023-07-20T12:59:09;3.78;;;1.35;;
31537;SDS011;18147;51.952;6.146;2023-07-20T13:01:47;2.58;;;1.60;;
31537;SDS011;18147;51.952;6.146;2023-07-20T13:04:13;16.00;;;2.75;;
31537;SDS011;18147;51.952;6.146;2023-07-20T13:06:45;20.17;;;2.28;;
31537;SDS011;18147;51.952;6.146;2023-07-20T13:09:17;2.90;;;1.10;;
31537;SDS011;18147;51.952;6.146;2023-07-20T13:11:46;3.95;;;1.38;;
31537;SDS011;18147;51.952;6.146;2023-07-20T13:14:12;2.38;;;1.10;;
31537;SDS011;18147;51.952;6.146;2023-07-20T13:16:43;1.20;;;1.10;;
31537;SDS011;18147;51.952;6.146;2023-07-20T13:19:09;6.05;;;1.30;;
31537;SDS011;18147;51.952;6.146;2023-07-20T13:21:43;3.08;;;1.10;;
31537;SDS011;18147;51.952;6.146;2023-07-20T13:24:09;3.47;;;1.20;;
31537;SDS011;18147;51.952;6.146;2023-07-20T13:26:35;2.03;;;1.30;;
31537;SDS011;18147;51.952;6.146;2023-07-20T13:29:00;1.50;;;1.40;;
31537;SDS011;18147;51.952;6.146;2023-07-20T13:31:26;2.55;;;1.52;;
31537;SDS011;18147;51.952;6.146;2023-07-20T13:33:52;1.40;;;1.30;;
31537;SDS011;18147;51.952;6.146;2023-07-20T13:36:19;4.05;;;1.50;;
31537;SDS011;18147;51.952;6.146;2023-07-20T13:38:46;3.00;;;1.77;;
31537;SDS011;18147;51.952;6.146;2023-07-20T13:41:17;1.98;;;1.30;;
31537;SDS011;18147;51.952;6.146;2023-07-20T13:43:45;3.35;;;1.90;;
31537;SDS011;18147;51.952;6.146;2023-07-20T13:46:17;2.75;;;1.60;;
31537;SDS011;18147;51.952;6.146;2023-07-20T13:48:45;2.42;;;1.30;;
31537;SDS011;18147;51.952;6.146;2023-07-20T13:51:11;3.20;;;1.50;;
31537;SDS011;18147;51.952;6.146;2023-07-20T13:53:42;1.48;;;1.33;;
31537;SDS011;18147;51.952;6.146;2023-07-20T13:56:16;2.40;;;1.30;;
31537;SDS011;18147;51.952;6.146;2023-07-20T13:58:43;2.22;;;1.80;;
31537;SDS011;18147;51.952;6.146;2023-07-20T14:01:09;2.05;;;1.23;;
31537;SDS011;18147;51.952;6.146;2023-07-20T14:03:35;1.15;;;0.98;;
31537;SDS011;18147;51.952;6.146;2023-07-20T14:06:01;2.10;;;1.10;;
31537;SDS011;18147;51.952;6.146;2023-07-20T14:08:26;2.58;;;1.15;;
31537;SDS011;18147;51.952;6.146;2023-07-20T14:10:52;3.20;;;1.60;;
31537;SDS011;18147;51.952;6.146;2023-07-20T14:13:18;6.05;;;1.38;;
31537;SDS011;18147;51.952;6.146;2023-07-20T14:15:47;3.03;;;1.38;;
31537;SDS011;18147;51.952;6.146;2023-07-20T14:18:15;2.05;;;1.20;;
31537;SDS011;18147;51.952;6.146;2023-07-20T14:20:46;2.67;;;1.20;;
31537;SDS011;18147;51.952;6.146;2023-07-20T14:23:18;3.90;;;1.48;;
31537;SDS011;18147;51.952;6.146;2023-07-20T14:25:43;1.45;;;1.08;;
31537;SDS011;18147;51.952;6.146;2023-07-20T14:28:09;2.88;;;1.38;;
31537;SDS011;18147;51.952;6.146;2023-07-20T14:30:38;3.25;;;1.40;;
31537;SDS011;18147;51.952;6.146;2023-07-20T14:33:04;1.85;;;1.20;;
31537;SDS011;18147;51.952;6.146;2023-07-20T14:35:30;1.05;;;0.95;;
31537;SDS011;18147;51.952;6.146;2023-07-20T14:37:56;1.60;;;1.13;;
31537;SDS011;18147;51.952;6.146;2023-07-20T14:40:22;2.05;;;0.90;;
31537;SDS011;18147;51.952;6.146;2023-07-20T14:42:47;1.63;;;1.40;;
31537;SDS011;18147;51.952;6.146;2023-07-20T14:45:16;2.92;;;1.50;;
31537;SDS011;18147;51.952;6.146;2023-07-20T14:47:44;3.15;;;1.70;;
31537;SDS011;18147;51.952;6.146;2023-07-20T14:50:13;3.50;;;1.30;;
31537;SDS011;18147;51.952;6.146;2023-07-20T14:55:14;2.78;;;1.40;;
31537;SDS011;18147;51.952;6.146;2023-07-20T14:57:43;2.58;;;1.50;;
31537;SDS011;18147;51.952;6.146;2023-07-20T15:00:09;3.20;;;1.20;;
31537;SDS011;18147;51.952;6.146;2023-07-20T15:02:45;2.33;;;1.10;;
31537;SDS011;18147;51.952;6.146;2023-07-20T15:05:11;2.97;;;1.33;;
31537;SDS011;18147;51.952;6.146;2023-07-20T15:07:47;2.90;;;1.33;;
31537;SDS011;18147;51.952;6.146;2023-07-20T15:10:13;1.70;;;1.58;;
31537;SDS011;18147;51.952;6.146;2023-07-20T15:12:44;6.07;;;1.30;;
31537;SDS011;18147;51.952;6.146;2023-07-20T15:15:14;4.00;;;1.40;;
31537;SDS011;18147;51.952;6.146;2023-07-20T15:17:44;1.42;;;1.27;;
31537;SDS011;18147;51.952;6.146;2023-07-20T15:20:19;3.05;;;1.30;;
31537;SDS011;18147;51.952;6.146;2023-07-20T15:22:45;3.45;;;1.40;;
31537;SDS011;18147;51.952;6.146;2023-07-20T15:25:11;2.13;;;1.10;;
31537;SDS011;18147;51.952;6.146;2023-07-20T15:27:47;5.97;;;1.63;;
31537;SDS011;18147;51.952;6.146;2023-07-20T15:30:16;9.05;;;1.30;;
31537;SDS011;18147;51.952;6.146;2023-07-20T15:32:46;2.03;;;1.55;;
31537;SDS011;18147;51.952;6.146;2023-07-20T15:35:15;2.70;;;1.20;;